sensor_id;sensor_type;location;lat;lon;timestamp;P1;durP1;ratioP1;P2;durP2;ratioP2
50651;SDS011;61429;52.086;5.240;2022-09-13T00:01:11;8.81;;;7.9;;
50651;SDS011;61429;52.086;5.240;2022-09-13T00:02:47;7.7;;;7.0;;
50651;SDS011;61429;52.086;5.240;2022-09-13T00:04:23;7.6;;;6.9;;
50651;SDS011;61429;52.086;5.240;2022-09-13T00:07:45;8.0;;;7.3;;
50651;SDS011;61429;52.086;5.240;2022-09-13T00:09:23;8.31;;;7.6;;
50651;SDS011;61429;52.086;5.240;2022-09-13T00:10:59;9.31;;;7.9;;
50651;SDS011;61429;52.086;5.240;2022-09-13T00:12:35;9.81;;;8.4;;
50651;SDS011;61429;52.086;5.240;2022-09-13T00:15:48;9.71;;;8.71;;
50651;SDS011;61429;52.086;5.240;2022-09-13T00:17:25;9.71;;;8.71;;
50651;SDS011;61429;52.086;5.240;2022-09-13T00:19:01;10.4;;;9.31;;
50651;SDS011;61429;52.086;5.240;2022-09-13T00:22:14;10.5;;;9.6;;
50651;SDS011;61429;52.086;5.240;2022-09-13T00:23:51;11.3;;;10.1;;
50651;SDS011;61429;52.086;5.240;2022-09-13T00:25:28;10.9;;;10.0;;
50651;SDS011;61429;52.086;5.240;2022-09-13T00:27:04;11.4;;;10.21;;
50651;SDS011;61429;52.086;5.240;2022-09-13T00:30:18;11.6;;;10.5;;
50651;SDS011;61429;52.086;5.240;2022-09-13T00:31:54;11.4;;;10.4;;
50651;SDS011;61429;52.086;5.240;2022-09-13T00:33:30;12.2;;;11.1;;
50651;SDS011;61429;52.086;5.240;2022-09-13T00:36:44;12.5;;;11.3;;
50651;SDS011;61429;52.086;5.240;2022-09-13T00:38:20;12.0;;;10.8;;
50651;SDS011;61429;52.086;5.240;2022-09-13T00:39:57;12.0;;;10.9;;
50651;SDS011;61429;52.086;5.240;2022-09-13T00:43:11;13.7;;;11.8;;
50651;SDS011;61429;52.086;5.240;2022-09-13T00:44:54;12.5;;;11.2;;
50651;SDS011;61429;52.086;5.240;2022-09-13T00:46:34;12.7;;;11.5;;
50651;SDS011;61429;52.086;5.240;2022-09-13T00:48:17;12.9;;;11.5;;
50651;SDS011;61429;52.086;5.240;2022-09-13T00:51:39;13.5;;;12.1;;
50651;SDS011;61429;52.086;5.240;2022-09-13T00:53:22;13.7;;;12.3;;
50651;SDS011;61429;52.086;5.240;2022-09-13T00:55:04;13.9;;;12.4;;
50651;SDS011;61429;52.086;5.240;2022-09-13T00:56:46;13.1;;;12.0;;
50651;SDS011;61429;52.086;5.240;2022-09-13T00:58:28;14.4;;;13.0;;
50651;SDS011;61429;52.086;5.240;2022-09-13T01:01:52;14.1;;;12.8;;
50651;SDS011;61429;52.086;5.240;2022-09-13T01:03:31;15.1;;;13.6;;
50651;SDS011;61429;52.086;5.240;2022-09-13T01:05:10;15.5;;;14.0;;
50651;SDS011;61429;52.086;5.240;2022-09-13T01:06:49;14.2;;;12.8;;
50651;SDS011;61429;52.086;5.240;2022-09-13T01:10:10;14.0;;;12.6;;
50651;SDS011;61429;52.086;5.240;2022-09-13T01:11:49;14.2;;;12.8;;
50651;SDS011;61429;52.086;5.240;2022-09-13T01:13:33;14.2;;;12.8;;
50651;SDS011;61429;52.086;5.240;2022-09-13T01:15:10;14.3;;;12.8;;
50651;SDS011;61429;52.086;5.240;2022-09-13T01:18:23;14.4;;;12.9;;
50651;SDS011;61429;52.086;5.240;2022-09-13T01:20:00;14.4;;;12.9;;
50651;SDS011;61429;52.086;5.240;2022-09-13T01:21:46;14.0;;;12.7;;
50651;SDS011;61429;52.086;5.240;2022-09-13T01:26:28;14.1;;;12.7;;
50651;SDS011;61429;52.086;5.240;2022-09-13T01:28:29;13.0;;;11.7;;
50651;SDS011;61429;52.086;5.240;2022-09-13T01:30:30;13.6;;;12.3;;
50651;SDS011;61429;52.086;5.240;2022-09-13T01:32:14;13.0;;;11.6;;
50651;SDS011;61429;52.086;5.240;2022-09-13T01:34:06;14.2;;;11.5;;
50651;SDS011;61429;52.086;5.240;2022-09-13T01:38:33;13.2;;;11.9;;
50651;SDS011;61429;52.086;5.240;2022-09-13T01:40:23;14.7;;;13.2;;
50651;SDS011;61429;52.086;5.240;2022-09-13T01:44:04;14.7;;;13.2;;
50651;SDS011;61429;52.086;5.240;2022-09-13T01:45:55;14.7;;;13.3;;
50651;SDS011;61429;52.086;5.240;2022-09-13T01:47:42;15.5;;;13.9;;
50651;SDS011;61429;52.086;5.240;2022-09-13T01:49:28;14.8;;;13.4;;
50651;SDS011;61429;52.086;5.240;2022-09-13T01:51:11;14.0;;;12.7;;
50651;SDS011;61429;52.086;5.240;2022-09-13T01:52:56;14.3;;;12.9;;
50651;SDS011;61429;52.086;5.240;2022-09-13T01:56:31;14.4;;;13.0;;
50651;SDS011;61429;52.086;5.240;2022-09-13T01:58:16;13.4;;;12.1;;
50651;SDS011;61429;52.086;5.240;2022-09-13T01:59:59;13.2;;;12.0;;
50651;SDS011;61429;52.086;5.240;2022-09-13T02:01:41;12.2;;;10.9;;
50651;SDS011;61429;52.086;5.240;2022-09-13T02:03:23;12.1;;;11.0;;
50651;SDS011;61429;52.086;5.240;2022-09-13T02:06:52;11.4;;;10.3;;
50651;SDS011;61429;52.086;5.240;2022-09-13T02:08:39;11.1;;;10.0;;
50651;SDS011;61429;52.086;5.240;2022-09-13T02:10:19;11.3;;;10.1;;
50651;SDS011;61429;52.086;5.240;2022-09-13T02:12:02;12.6;;;11.5;;
50651;SDS011;61429;52.086;5.240;2022-09-13T02:13:45;12.3;;;11.2;;
50651;SDS011;61429;52.086;5.240;2022-09-13T02:17:10;13.3;;;11.9;;
50651;SDS011;61429;52.086;5.240;2022-09-13T02:18:50;14.0;;;11.8;;
50651;SDS011;61429;52.086;5.240;2022-09-13T02:20:34;14.4;;;13.1;;
50651;SDS011;61429;52.086;5.240;2022-09-13T02:22:13;12.9;;;11.6;;
50651;SDS011;61429;52.086;5.240;2022-09-13T02:25:36;12.7;;;11.4;;
50651;SDS011;61429;52.086;5.240;2022-09-13T02:27:17;14.9;;;13.3;;
50651;SDS011;61429;52.086;5.240;2022-09-13T02:28:58;14.0;;;12.6;;
50651;SDS011;61429;52.086;5.240;2022-09-13T02:30:40;15.2;;;13.7;;
50651;SDS011;61429;52.086;5.240;2022-09-13T02:34:10;14.4;;;13.1;;
50651;SDS011;61429;52.086;5.240;2022-09-13T02:35:52;15.2;;;13.8;;
50651;SDS011;61429;52.086;5.240;2022-09-13T02:37:35;16.3;;;14.7;;
50651;SDS011;61429;52.086;5.240;2022-09-13T02:39:16;15.8;;;14.2;;
50651;SDS011;61429;52.086;5.240;2022-09-13T02:40:57;16.11;;;14.5;;
50651;SDS011;61429;52.086;5.240;2022-09-13T02:44:25;15.7;;;14.1;;
50651;SDS011;61429;52.086;5.240;2022-09-13T02:46:10;15.1;;;13.7;;
50651;SDS011;61429;52.086;5.240;2022-09-13T02:47:57;15.4;;;13.9;;
50651;SDS011;61429;52.086;5.240;2022-09-13T02:49:38;14.1;;;12.7;;
50651;SDS011;61429;52.086;5.240;2022-09-13T02:51:24;15.6;;;13.5;;
50651;SDS011;61429;52.086;5.240;2022-09-13T02:54:55;17.5;;;15.8;;
50651;SDS011;61429;52.086;5.240;2022-09-13T02:56:42;15.4;;;13.8;;
50651;SDS011;61429;52.086;5.240;2022-09-13T02:58:27;16.5;;;13.9;;
50651;SDS011;61429;52.086;5.240;2022-09-13T03:00:11;15.8;;;14.3;;
50651;SDS011;61429;52.086;5.240;2022-09-13T03:03:28;17.61;;;15.9;;
50651;SDS011;61429;52.086;5.240;2022-09-13T03:05:04;17.61;;;15.9;;
50651;SDS011;61429;52.086;5.240;2022-09-13T03:06:41;17.0;;;15.3;;
50651;SDS011;61429;52.086;5.240;2022-09-13T03:08:18;18.3;;;16.0;;
50651;SDS011;61429;52.086;5.240;2022-09-13T03:11:40;18.61;;;16.8;;
50651;SDS011;61429;52.086;5.240;2022-09-13T03:13:33;21.1;;;19.0;;
50651;SDS011;61429;52.086;5.240;2022-09-13T03:15:28;20.2;;;17.7;;
50651;SDS011;61429;52.086;5.240;2022-09-13T03:17:25;19.7;;;17.8;;
50651;SDS011;61429;52.086;5.240;2022-09-13T03:19:18;17.11;;;15.5;;
50651;SDS011;61429;52.086;5.240;2022-09-13T03:21:15;16.2;;;14.6;;
50651;SDS011;61429;52.086;5.240;2022-09-13T03:23:09;17.2;;;15.6;;
50651;SDS011;61429;52.086;5.240;2022-09-13T03:25:11;15.9;;;14.2;;
50651;SDS011;61429;52.086;5.240;2022-09-13T03:27:02;13.2;;;11.8;;
50651;SDS011;61429;52.086;5.240;2022-09-13T03:30:45;13.2;;;12.0;;
50651;SDS011;61429;52.086;5.240;2022-09-13T03:32:40;12.9;;;11.6;;
50651;SDS011;61429;52.086;5.240;2022-09-13T03:34:28;12.6;;;11.4;;
50651;SDS011;61429;52.086;5.240;2022-09-13T03:36:13;13.2;;;11.9;;
50651;SDS011;61429;52.086;5.240;2022-09-13T03:37:56;11.4;;;10.21;;
50651;SDS011;61429;52.086;5.240;2022-09-13T03:39:40;11.4;;;10.3;;
50651;SDS011;61429;52.086;5.240;2022-09-13T03:43:08;11.4;;;10.3;;
50651;SDS011;61429;52.086;5.240;2022-09-13T03:44:48;10.7;;;9.6;;
50651;SDS011;61429;52.086;5.240;2022-09-13T03:46:31;10.0;;;9.0;;
50651;SDS011;61429;52.086;5.240;2022-09-13T03:48:12;11.0;;;9.9;;
50651;SDS011;61429;52.086;5.240;2022-09-13T03:51:28;10.5;;;9.5;;
50651;SDS011;61429;52.086;5.240;2022-09-13T03:53:07;10.0;;;9.1;;
50651;SDS011;61429;52.086;5.240;2022-09-13T03:54:46;10.3;;;9.31;;
50651;SDS011;61429;52.086;5.240;2022-09-13T03:56:22;11.6;;;10.4;;
50651;SDS011;61429;52.086;5.240;2022-09-13T03:59:38;12.2;;;11.0;;
50651;SDS011;61429;52.086;5.240;2022-09-13T04:01:19;12.5;;;11.3;;
50651;SDS011;61429;52.086;5.240;2022-09-13T04:02:57;12.9;;;11.5;;
50651;SDS011;61429;52.086;5.240;2022-09-13T04:06:10;12.1;;;10.9;;
50651;SDS011;61429;52.086;5.240;2022-09-13T04:07:46;12.3;;;11.1;;
50651;SDS011;61429;52.086;5.240;2022-09-13T04:09:22;12.1;;;10.8;;
50651;SDS011;61429;52.086;5.240;2022-09-13T04:10:58;13.0;;;11.8;;
50651;SDS011;61429;52.086;5.240;2022-09-13T04:14:11;13.9;;;12.5;;
50651;SDS011;61429;52.086;5.240;2022-09-13T04:15:48;13.8;;;12.4;;
50651;SDS011;61429;52.086;5.240;2022-09-13T04:17:24;14.7;;;13.2;;
50651;SDS011;61429;52.086;5.240;2022-09-13T04:20:37;15.1;;;13.1;;
50651;SDS011;61429;52.086;5.240;2022-09-13T04:22:13;16.11;;;14.2;;
50651;SDS011;61429;52.086;5.240;2022-09-13T04:23:50;16.5;;;14.8;;
50651;SDS011;61429;52.086;5.240;2022-09-13T04:27:03;15.1;;;13.5;;
50651;SDS011;61429;52.086;5.240;2022-09-13T04:28:40;16.8;;;15.1;;
50651;SDS011;61429;52.086;5.240;2022-09-13T04:30:16;16.3;;;14.7;;
50651;SDS011;61429;52.086;5.240;2022-09-13T04:31:53;18.3;;;15.8;;
50651;SDS011;61429;52.086;5.240;2022-09-13T04:35:08;18.3;;;16.5;;
50651;SDS011;61429;52.086;5.240;2022-09-13T04:36:45;19.2;;;17.3;;
50651;SDS011;61429;52.086;5.240;2022-09-13T04:38:21;19.61;;;17.61;;
50651;SDS011;61429;52.086;5.240;2022-09-13T04:41:33;21.6;;;19.41;;
50651;SDS011;61429;52.086;5.240;2022-09-13T04:43:09;20.2;;;18.11;;
50651;SDS011;61429;52.086;5.240;2022-09-13T04:44:49;19.8;;;17.8;;
50651;SDS011;61429;52.086;5.240;2022-09-13T04:48:02;20.8;;;18.7;;
50651;SDS011;61429;52.086;5.240;2022-09-13T04:49:38;20.7;;;18.5;;
50651;SDS011;61429;52.086;5.240;2022-09-13T04:51:16;18.91;;;17.0;;
50651;SDS011;61429;52.086;5.240;2022-09-13T04:52:54;18.5;;;16.61;;
50651;SDS011;61429;52.086;5.240;2022-09-13T04:57:45;19.8;;;17.91;;
50651;SDS011;61429;52.086;5.240;2022-09-13T04:59:21;19.91;;;17.8;;
50651;SDS011;61429;52.086;5.240;2022-09-13T05:02:36;19.91;;;17.91;;
50651;SDS011;61429;52.086;5.240;2022-09-13T05:04:12;19.3;;;17.2;;
50651;SDS011;61429;52.086;5.240;2022-09-13T05:05:48;19.61;;;17.61;;
50651;SDS011;61429;52.086;5.240;2022-09-13T05:07:25;20.7;;;17.8;;
50651;SDS011;61429;52.086;5.240;2022-09-13T05:10:39;20.2;;;18.11;;
50651;SDS011;61429;52.086;5.240;2022-09-13T05:12:15;19.3;;;17.3;;
50651;SDS011;61429;52.086;5.240;2022-09-13T05:13:54;19.8;;;17.8;;
50651;SDS011;61429;52.086;5.240;2022-09-13T05:17:10;20.41;;;18.2;;
50651;SDS011;61429;52.086;5.240;2022-09-13T05:18:47;20.9;;;18.7;;
50651;SDS011;61429;52.086;5.240;2022-09-13T05:20:23;21.0;;;18.8;;
50651;SDS011;61429;52.086;5.240;2022-09-13T05:23:35;21.4;;;19.11;;
50651;SDS011;61429;52.086;5.240;2022-09-13T05:25:11;22.3;;;19.5;;
50651;SDS011;61429;52.086;5.240;2022-09-13T05:26:47;21.7;;;19.41;;
50651;SDS011;61429;52.086;5.240;2022-09-13T05:28:24;19.91;;;17.91;;
50651;SDS011;61429;52.086;5.240;2022-09-13T05:31:39;21.1;;;18.8;;
50651;SDS011;61429;52.086;5.240;2022-09-13T05:33:19;20.2;;;18.11;;
50651;SDS011;61429;52.086;5.240;2022-09-13T05:34:55;20.11;;;18.11;;
50651;SDS011;61429;52.086;5.240;2022-09-13T05:38:09;19.5;;;17.5;;
50651;SDS011;61429;52.086;5.240;2022-09-13T05:39:45;19.5;;;17.5;;
50651;SDS011;61429;52.086;5.240;2022-09-13T05:41:22;19.11;;;17.2;;
50651;SDS011;61429;52.086;5.240;2022-09-13T05:42:59;20.6;;;18.5;;
50651;SDS011;61429;52.086;5.240;2022-09-13T05:46:11;20.8;;;18.8;;
50651;SDS011;61429;52.086;5.240;2022-09-13T05:47:50;21.3;;;18.8;;
50651;SDS011;61429;52.086;5.240;2022-09-13T05:49:26;22.4;;;19.7;;
50651;SDS011;61429;52.086;5.240;2022-09-13T05:52:40;22.0;;;19.7;;
50651;SDS011;61429;52.086;5.240;2022-09-13T05:54:17;22.8;;;20.5;;
50651;SDS011;61429;52.086;5.240;2022-09-13T05:55:53;23.2;;;20.7;;
50651;SDS011;61429;52.086;5.240;2022-09-13T05:59:05;24.2;;;20.3;;
50651;SDS011;61429;52.086;5.240;2022-09-13T06:00:41;22.8;;;20.3;;
50651;SDS011;61429;52.086;5.240;2022-09-13T06:02:17;22.8;;;20.41;;
50651;SDS011;61429;52.086;5.240;2022-09-13T06:03:54;24.7;;;21.1;;
50651;SDS011;61429;52.086;5.240;2022-09-13T06:07:09;23.6;;;21.1;;
50651;SDS011;61429;52.086;5.240;2022-09-13T06:08:46;22.2;;;19.91;;
50651;SDS011;61429;52.086;5.240;2022-09-13T06:10:22;20.8;;;18.61;;
50651;SDS011;61429;52.086;5.240;2022-09-13T06:13:34;21.2;;;19.2;;
50651;SDS011;61429;52.086;5.240;2022-09-13T06:15:12;22.6;;;20.2;;
50651;SDS011;61429;52.086;5.240;2022-09-13T06:16:49;22.5;;;19.7;;
50651;SDS011;61429;52.086;5.240;2022-09-13T06:20:02;22.1;;;19.8;;
50651;SDS011;61429;52.086;5.240;2022-09-13T06:21:39;21.9;;;18.41;;
50651;SDS011;61429;52.086;5.240;2022-09-13T06:23:15;22.1;;;19.8;;
50651;SDS011;61429;52.086;5.240;2022-09-13T06:24:52;20.9;;;18.7;;
50651;SDS011;61429;52.086;5.240;2022-09-13T06:28:05;22.5;;;20.11;;
50651;SDS011;61429;52.086;5.240;2022-09-13T06:29:42;23.1;;;19.3;;
50651;SDS011;61429;52.086;5.240;2022-09-13T06:31:19;23.9;;;21.4;;
50651;SDS011;61429;52.086;5.240;2022-09-13T06:34:33;25.0;;;20.9;;
50651;SDS011;61429;52.086;5.240;2022-09-13T06:36:10;22.8;;;20.41;;
50651;SDS011;61429;52.086;5.240;2022-09-13T06:37:47;24.0;;;21.4;;
50651;SDS011;61429;52.086;5.240;2022-09-13T06:39:25;24.3;;;21.6;;
50651;SDS011;61429;52.086;5.240;2022-09-13T06:42:40;24.8;;;22.3;;
50651;SDS011;61429;52.086;5.240;2022-09-13T06:44:16;24.4;;;21.9;;
50651;SDS011;61429;52.086;5.240;2022-09-13T06:45:52;25.0;;;22.1;;
50651;SDS011;61429;52.086;5.240;2022-09-13T06:49:05;25.3;;;22.6;;
50651;SDS011;61429;52.086;5.240;2022-09-13T06:50:44;26.4;;;22.6;;
50651;SDS011;61429;52.086;5.240;2022-09-13T06:52:20;27.3;;;23.0;;
50651;SDS011;61429;52.086;5.240;2022-09-13T06:55:33;23.8;;;21.3;;
50651;SDS011;61429;52.086;5.240;2022-09-13T06:57:09;25.4;;;22.7;;
50651;SDS011;61429;52.086;5.240;2022-09-13T06:58:46;28.3;;;23.3;;
50651;SDS011;61429;52.086;5.240;2022-09-13T07:00:25;22.9;;;20.3;;
50651;SDS011;61429;52.086;5.240;2022-09-13T07:03:37;25.5;;;22.1;;
50651;SDS011;61429;52.086;5.240;2022-09-13T07:05:16;26.3;;;21.9;;
50651;SDS011;61429;52.086;5.240;2022-09-13T07:06:53;25.4;;;22.7;;
50651;SDS011;61429;52.086;5.240;2022-09-13T07:10:07;25.9;;;23.1;;
50651;SDS011;61429;52.086;5.240;2022-09-13T07:11:44;25.0;;;22.4;;
50651;SDS011;61429;52.086;5.240;2022-09-13T07:13:21;25.3;;;22.7;;
50651;SDS011;61429;52.086;5.240;2022-09-13T07:16:35;24.6;;;21.5;;
50651;SDS011;61429;52.086;5.240;2022-09-13T07:18:12;26.0;;;22.1;;
50651;SDS011;61429;52.086;5.240;2022-09-13T07:19:48;20.8;;;18.0;;
50651;SDS011;61429;52.086;5.240;2022-09-13T07:21:25;22.5;;;20.11;;
50651;SDS011;61429;52.086;5.240;2022-09-13T07:24:39;17.2;;;15.5;;
50651;SDS011;61429;52.086;5.240;2022-09-13T07:26:15;20.2;;;18.11;;
50651;SDS011;61429;52.086;5.240;2022-09-13T07:27:51;19.2;;;16.61;;
50651;SDS011;61429;52.086;5.240;2022-09-13T07:31:04;21.6;;;19.41;;
50651;SDS011;61429;52.086;5.240;2022-09-13T07:32:44;21.7;;;19.5;;
50651;SDS011;61429;52.086;5.240;2022-09-13T07:34:20;22.3;;;20.0;;
50651;SDS011;61429;52.086;5.240;2022-09-13T07:36:00;22.6;;;20.3;;
50651;SDS011;61429;52.086;5.240;2022-09-13T07:39:14;23.9;;;21.4;;
50651;SDS011;61429;52.086;5.240;2022-09-13T07:40:52;22.1;;;19.8;;
50651;SDS011;61429;52.086;5.240;2022-09-13T07:42:29;21.4;;;19.2;;
50651;SDS011;61429;52.086;5.240;2022-09-13T07:45:45;21.0;;;18.8;;
50651;SDS011;61429;52.086;5.240;2022-09-13T07:47:21;21.4;;;19.11;;
50651;SDS011;61429;52.086;5.240;2022-09-13T07:48:58;21.8;;;19.5;;
50651;SDS011;61429;52.086;5.240;2022-09-13T07:50:36;19.41;;;17.2;;
50651;SDS011;61429;52.086;5.240;2022-09-13T07:53:50;19.0;;;16.61;;
50651;SDS011;61429;52.086;5.240;2022-09-13T07:55:27;17.11;;;15.4;;
50651;SDS011;61429;52.086;5.240;2022-09-13T07:57:03;16.61;;;14.9;;
50651;SDS011;61429;52.086;5.240;2022-09-13T08:00:18;16.4;;;14.7;;
50651;SDS011;61429;52.086;5.240;2022-09-13T08:01:54;14.5;;;13.1;;
50651;SDS011;61429;52.086;5.240;2022-09-13T08:03:30;17.0;;;13.1;;
50651;SDS011;61429;52.086;5.240;2022-09-13T08:06:45;12.0;;;10.9;;
50651;SDS011;61429;52.086;5.240;2022-09-13T08:08:22;12.1;;;10.9;;
50651;SDS011;61429;52.086;5.240;2022-09-13T08:09:58;12.8;;;11.5;;
50651;SDS011;61429;52.086;5.240;2022-09-13T08:11:35;13.3;;;11.5;;
50651;SDS011;61429;52.086;5.240;2022-09-13T08:14:51;12.6;;;11.4;;
50651;SDS011;61429;52.086;5.240;2022-09-13T08:16:30;11.5;;;10.3;;
50651;SDS011;61429;52.086;5.240;2022-09-13T08:18:06;8.71;;;7.8;;
50651;SDS011;61429;52.086;5.240;2022-09-13T08:21:20;10.6;;;9.5;;
50651;SDS011;61429;52.086;5.240;2022-09-13T08:22:58;10.5;;;8.81;;
50651;SDS011;61429;52.086;5.240;2022-09-13T08:24:34;9.0;;;7.3;;
50651;SDS011;61429;52.086;5.240;2022-09-13T08:26:10;7.4;;;6.6;;
50651;SDS011;61429;52.086;5.240;2022-09-13T08:29:24;6.7;;;6.0;;
50651;SDS011;61429;52.086;5.240;2022-09-13T08:31:02;6.7;;;5.4;;
50651;SDS011;61429;52.086;5.240;2022-09-13T08:32:39;5.3;;;4.7;;
50651;SDS011;61429;52.086;5.240;2022-09-13T08:35:54;5.5;;;4.41;;
50651;SDS011;61429;52.086;5.240;2022-09-13T08:37:33;4.1;;;3.7;;
50651;SDS011;61429;52.086;5.240;2022-09-13T08:39:11;4.0;;;3.5;;
50651;SDS011;61429;52.086;5.240;2022-09-13T08:40:48;3.7;;;3.1;;
50651;SDS011;61429;52.086;5.240;2022-09-13T08:44:26;3.2;;;2.8;;
50651;SDS011;61429;52.086;5.240;2022-09-13T08:46:06;3.8;;;2.4;;
50651;SDS011;61429;52.086;5.240;2022-09-13T08:47:51;2.5;;;2.31;;
50651;SDS011;61429;52.086;5.240;2022-09-13T08:49:33;2.6;;;2.4;;
50651;SDS011;61429;52.086;5.240;2022-09-13T08:51:22;4.61;;;2.6;;
50651;SDS011;61429;52.086;5.240;2022-09-13T08:54:55;2.9;;;2.4;;
50651;SDS011;61429;52.086;5.240;2022-09-13T08:56:34;3.5;;;2.4;;
50651;SDS011;61429;52.086;5.240;2022-09-13T08:58:21;5.3;;;2.5;;
50651;SDS011;61429;52.086;5.240;2022-09-13T09:00:39;3.4;;;2.4;;
50651;SDS011;61429;52.086;5.240;2022-09-13T09:02:23;4.61;;;2.7;;
50651;SDS011;61429;52.086;5.240;2022-09-13T09:04:18;3.6;;;2.4;;
50651;SDS011;61429;52.086;5.240;2022-09-13T09:06:11;2.5;;;2.1;;
50651;SDS011;61429;52.086;5.240;2022-09-13T09:09:33;3.9;;;2.21;;
50651;SDS011;61429;52.086;5.240;2022-09-13T09:11:19;4.2;;;2.21;;
50651;SDS011;61429;52.086;5.240;2022-09-13T09:13:07;4.7;;;2.5;;
50651;SDS011;61429;52.086;5.240;2022-09-13T09:14:56;3.2;;;2.21;;
50651;SDS011;61429;52.086;5.240;2022-09-13T09:16:39;3.1;;;2.1;;
50651;SDS011;61429;52.086;5.240;2022-09-13T09:20:06;3.2;;;1.8;;
50651;SDS011;61429;52.086;5.240;2022-09-13T09:21:58;2.8;;;1.9;;
50651;SDS011;61429;52.086;5.240;2022-09-13T09:23:40;3.4;;;1.9;;
50651;SDS011;61429;52.086;5.240;2022-09-13T09:25:29;3.2;;;1.7;;
50651;SDS011;61429;52.086;5.240;2022-09-13T09:27:09;3.4;;;1.8;;
50651;SDS011;61429;52.086;5.240;2022-09-13T09:30:33;2.5;;;1.7;;
50651;SDS011;61429;52.086;5.240;2022-09-13T09:32:31;1.7;;;1.6;;
50651;SDS011;61429;52.086;5.240;2022-09-13T09:34:24;2.31;;;1.8;;
50651;SDS011;61429;52.086;5.240;2022-09-13T09:36:12;3.2;;;1.8;;
50651;SDS011;61429;52.086;5.240;2022-09-13T09:38:01;3.5;;;1.9;;
50651;SDS011;61429;52.086;5.240;2022-09-13T09:40:16;3.0;;;2.21;;
50651;SDS011;61429;52.086;5.240;2022-09-13T09:41:51;3.2;;;1.7;;
50651;SDS011;61429;52.086;5.240;2022-09-13T09:43:33;2.31;;;1.8;;
50651;SDS011;61429;52.086;5.240;2022-09-13T09:47:03;2.8;;;1.7;;
50651;SDS011;61429;52.086;5.240;2022-09-13T09:48:47;2.9;;;1.4;;
50651;SDS011;61429;52.086;5.240;2022-09-13T09:50:29;2.5;;;1.7;;
50651;SDS011;61429;52.086;5.240;2022-09-13T09:52:11;3.2;;;1.7;;
50651;SDS011;61429;52.086;5.240;2022-09-13T09:55:39;2.8;;;1.6;;
50651;SDS011;61429;52.086;5.240;2022-09-13T09:57:40;2.4;;;1.5;;
50651;SDS011;61429;52.086;5.240;2022-09-13T09:59:26;2.8;;;1.6;;
50651;SDS011;61429;52.086;5.240;2022-09-13T10:01:08;2.31;;;1.6;;
50651;SDS011;61429;52.086;5.240;2022-09-13T10:02:55;3.8;;;1.5;;
50651;SDS011;61429;52.086;5.240;2022-09-13T10:04:35;1.7;;;1.4;;
50651;SDS011;61429;52.086;5.240;2022-09-13T10:07:54;2.8;;;1.5;;
50651;SDS011;61429;52.086;5.240;2022-09-13T10:09:33;3.8;;;1.6;;
50651;SDS011;61429;52.086;5.240;2022-09-13T10:12:48;2.8;;;1.5;;
50651;SDS011;61429;52.086;5.240;2022-09-13T10:16:21;3.7;;;1.4;;
50651;SDS011;61429;52.086;5.240;2022-09-13T10:18:03;2.5;;;1.3;;
50651;SDS011;61429;52.086;5.240;2022-09-13T10:19:50;4.1;;;1.6;;
50651;SDS011;61429;52.086;5.240;2022-09-13T10:21:30;2.9;;;1.6;;
50651;SDS011;61429;52.086;5.240;2022-09-13T10:24:54;1.9;;;1.5;;
50651;SDS011;61429;52.086;5.240;2022-09-13T10:26:31;3.5;;;1.7;;
50651;SDS011;61429;52.086;5.240;2022-09-13T10:28:10;2.5;;;1.6;;
50651;SDS011;61429;52.086;5.240;2022-09-13T10:29:51;2.9;;;1.6;;
50651;SDS011;61429;52.086;5.240;2022-09-13T10:33:16;4.2;;;1.6;;
50651;SDS011;61429;52.086;5.240;2022-09-13T10:35:05;2.21;;;1.4;;
50651;SDS011;61429;52.086;5.240;2022-09-13T10:36:52;3.4;;;1.8;;
50651;SDS011;61429;52.086;5.240;2022-09-13T10:38:33;4.7;;;2.0;;
50651;SDS011;61429;52.086;5.240;2022-09-13T10:40:15;3.7;;;1.6;;
50651;SDS011;61429;52.086;5.240;2022-09-13T10:43:39;4.3;;;1.7;;
50651;SDS011;61429;52.086;5.240;2022-09-13T10:45:18;3.9;;;1.9;;
50651;SDS011;61429;52.086;5.240;2022-09-13T10:47:00;4.2;;;2.1;;
50651;SDS011;61429;52.086;5.240;2022-09-13T10:48:43;3.8;;;1.9;;
50651;SDS011;61429;52.086;5.240;2022-09-13T10:52:11;3.4;;;2.0;;
50651;SDS011;61429;52.086;5.240;2022-09-13T10:54:07;4.1;;;2.4;;
50651;SDS011;61429;52.086;5.240;2022-09-13T10:55:54;2.8;;;1.7;;
50651;SDS011;61429;52.086;5.240;2022-09-13T10:57:32;3.3;;;2.4;;
50651;SDS011;61429;52.086;5.240;2022-09-13T10:59:13;4.1;;;2.5;;
50651;SDS011;61429;52.086;5.240;2022-09-13T11:01:30;3.9;;;2.4;;
50651;SDS011;61429;52.086;5.240;2022-09-13T11:03:21;3.0;;;2.31;;
50651;SDS011;61429;52.086;5.240;2022-09-13T11:05:19;3.0;;;2.21;;
50651;SDS011;61429;52.086;5.240;2022-09-13T11:08:53;2.1;;;1.7;;
50651;SDS011;61429;52.086;5.240;2022-09-13T11:10:43;3.4;;;2.1;;
50651;SDS011;61429;52.086;5.240;2022-09-13T11:12:33;3.5;;;1.9;;
50651;SDS011;61429;52.086;5.240;2022-09-13T11:14:24;2.6;;;2.0;;
50651;SDS011;61429;52.086;5.240;2022-09-13T11:16:21;4.5;;;2.1;;
50651;SDS011;61429;52.086;5.240;2022-09-13T11:18:15;2.0;;;1.7;;
50651;SDS011;61429;52.086;5.240;2022-09-13T11:20:15;2.4;;;1.7;;
50651;SDS011;61429;52.086;5.240;2022-09-13T11:22:21;4.2;;;1.9;;
50651;SDS011;61429;52.086;5.240;2022-09-13T11:24:13;3.8;;;1.7;;
50651;SDS011;61429;52.086;5.240;2022-09-13T11:26:22;4.0;;;1.9;;
50651;SDS011;61429;52.086;5.240;2022-09-13T11:28:37;2.21;;;1.7;;
50651;SDS011;61429;52.086;5.240;2022-09-13T11:30:25;3.6;;;1.8;;
50651;SDS011;61429;52.086;5.240;2022-09-13T11:34:03;3.0;;;1.7;;
50651;SDS011;61429;52.086;5.240;2022-09-13T11:35:53;2.21;;;1.5;;
50651;SDS011;61429;52.086;5.240;2022-09-13T11:37:55;2.0;;;1.7;;
50651;SDS011;61429;52.086;5.240;2022-09-13T11:39:42;3.9;;;1.7;;
50651;SDS011;61429;52.086;5.240;2022-09-13T11:41:29;2.21;;;1.5;;
50651;SDS011;61429;52.086;5.240;2022-09-13T11:43:20;2.7;;;1.5;;
50651;SDS011;61429;52.086;5.240;2022-09-13T11:45:17;1.7;;;1.5;;
50651;SDS011;61429;52.086;5.240;2022-09-13T11:47:13;2.7;;;1.4;;
50651;SDS011;61429;52.086;5.240;2022-09-13T11:49:04;3.2;;;1.8;;
50651;SDS011;61429;52.086;5.240;2022-09-13T11:51:30;3.5;;;1.8;;
50651;SDS011;61429;52.086;5.240;2022-09-13T11:53:23;2.9;;;1.7;;
50651;SDS011;61429;52.086;5.240;2022-09-13T11:57:05;3.2;;;1.9;;
50651;SDS011;61429;52.086;5.240;2022-09-13T11:58:47;1.9;;;1.5;;
50651;SDS011;61429;52.086;5.240;2022-09-13T12:00:30;4.3;;;1.6;;
50651;SDS011;61429;52.086;5.240;2022-09-13T12:02:13;2.6;;;1.4;;
50651;SDS011;61429;52.086;5.240;2022-09-13T12:04:00;2.0;;;1.4;;
50651;SDS011;61429;52.086;5.240;2022-09-13T12:07:25;2.0;;;1.2;;
50651;SDS011;61429;52.086;5.240;2022-09-13T12:09:14;3.3;;;1.4;;
50651;SDS011;61429;52.086;5.240;2022-09-13T12:10:57;2.21;;;1.3;;
50651;SDS011;61429;52.086;5.240;2022-09-13T12:12:37;2.9;;;1.7;;
50651;SDS011;61429;52.086;5.240;2022-09-13T12:14:16;4.5;;;1.7;;
50651;SDS011;61429;52.086;5.240;2022-09-13T12:17:38;2.7;;;1.7;;
50651;SDS011;61429;52.086;5.240;2022-09-13T12:19:19;1.6;;;1.4;;
50651;SDS011;61429;52.086;5.240;2022-09-13T12:21:02;2.7;;;1.2;;
50651;SDS011;61429;52.086;5.240;2022-09-13T12:22:43;2.6;;;1.4;;
50651;SDS011;61429;52.086;5.240;2022-09-13T12:26:14;3.0;;;1.4;;
50651;SDS011;61429;52.086;5.240;2022-09-13T12:27:55;4.2;;;1.5;;
50651;SDS011;61429;52.086;5.240;2022-09-13T12:29:39;2.5;;;1.5;;
50651;SDS011;61429;52.086;5.240;2022-09-13T12:31:23;1.5;;;1.4;;
50651;SDS011;61429;52.086;5.240;2022-09-13T12:33:01;4.1;;;1.6;;
50651;SDS011;61429;52.086;5.240;2022-09-13T12:36:31;2.5;;;1.6;;
50651;SDS011;61429;52.086;5.240;2022-09-13T12:38:28;2.5;;;1.9;;
50651;SDS011;61429;52.086;5.240;2022-09-13T12:40:29;3.9;;;1.7;;
50651;SDS011;61429;52.086;5.240;2022-09-13T12:44:15;2.4;;;1.5;;
50651;SDS011;61429;52.086;5.240;2022-09-13T12:46:18;3.1;;;1.7;;
50651;SDS011;61429;52.086;5.240;2022-09-13T12:48:43;2.5;;;1.7;;
50651;SDS011;61429;52.086;5.240;2022-09-13T12:51:07;4.61;;;1.8;;
50651;SDS011;61429;52.086;5.240;2022-09-13T12:53:36;3.9;;;1.5;;